Time;durP1;ratioP1;P1;durP2;ratioP2;P2;SDS_P1;SDS_P2;PMS_P1;PMS_P2;Temp;Humidity;BMP_temperature;BMP_pressure;BME280_temperature;BME280_humidity;BME280_pressure;Samples;Min_cycle;Max_cycle;Signal;HPM_P1;HPM_P2
2023/03/28 00:01:04;;;;;;;5.77;1.43;;;6.90;40.40;;;;;;5073359;28;20180;-52
2023/03/28 00:03:34;;;;;;;5.20;1.63;;;6.80;41.70;;;;;;5073264;28;20419;-52
2023/03/28 00:06:00;;;;;;;4.57;1.70;;;6.70;41.00;;;;;;5073468;28;20259;-50
2023/03/28 00:08:30;;;;;;;7.95;1.17;;;6.60;41.50;;;;;;5073206;28;20532;-50
2023/03/28 00:11:04;;;;;;;6.55;2.20;;;6.80;41.20;;;;;;5073051;28;20189;-52
2023/03/28 00:13:29;;;;;;;2.80;1.15;;;6.70;41.10;;;;;;5072907;28;20181;-50
2023/03/28 00:16:02;;;;;;;3.83;1.87;;;6.80;41.10;;;;;;5073153;28;20548;-52
2023/03/28 00:18:29;;;;;;;8.40;1.95;;;6.70;41.30;;;;;;5073284;28;20222;-52
2023/03/28 00:20:54;;;;;;;3.15;1.20;;;6.70;41.30;;;;;;5072992;28;20177;-50
2023/03/28 00:23:20;;;;;;;3.27;1.47;;;7.30;41.70;;;;;;5072509;28;20196;-49
2023/03/28 00:25:47;;;;;;;6.80;2.03;;;6.70;41.30;;;;;;5073197;28;20180;-50
2023/03/28 00:28:13;;;;;;;5.00;1.88;;;6.80;41.30;;;;;;5072804;28;20545;-49
2023/03/28 00:30:39;;;;;;;8.00;1.83;;;6.80;41.20;;;;;;5072719;28;20212;-49
2023/03/28 00:33:05;;;;;;;4.93;1.83;;;6.70;41.40;;;;;;5072653;28;20704;-50
2023/03/28 00:35:32;;;;;;;4.28;2.20;;;6.70;41.30;;;;;;5072648;28;20406;-50
2023/03/28 00:37:58;;;;;;;5.10;1.80;;;6.70;41.50;;;;;;5072608;28;20707;-50
2023/03/28 00:40:25;;;;;;;5.70;1.30;;;6.70;41.30;;;;;;5072101;28;20184;-50
2023/03/28 00:42:51;;;;;;;5.57;1.70;;;6.70;41.20;;;;;;5072304;28;20427;-50
2023/03/28 00:45:20;;;;;;;4.45;1.75;;;6.80;41.00;;;;;;5072530;28;20174;-50
2023/03/28 00:48:05;;;;;;;3.60;1.77;;;6.90;40.70;;;;;;5072762;28;20183;-50
2023/03/28 00:50:39;;;;;;;8.02;1.70;;;7.00;40.40;;;;;;5072394;28;20212;-50
2023/03/28 00:53:08;;;;;;;3.83;1.95;;;6.90;40.80;;;;;;5072348;28;20197;-50
2023/03/28 00:55:45;;;;;;;1.85;1.25;;;6.90;40.50;;;;;;5072480;28;20172;-50
2023/03/28 00:58:15;;;;;;;3.65;1.10;;;6.90;40.50;;;;;;5072387;28;20571;-50
2023/03/28 01:00:45;;;;;;;2.85;1.55;;;6.50;41.00;;;;;;5072195;28;20263;-50
2023/03/28 01:03:14;;;;;;;5.28;1.30;;;6.50;41.60;;;;;;5072047;28;20191;-50
2023/03/28 01:05:42;;;;;;;5.18;1.20;;;6.60;41.30;;;;;;5072207;28;20208;-50
2023/03/28 01:08:21;;;;;;;1.55;1.02;;;6.70;41.10;;;;;;5072276;28;20173;-50
2023/03/28 01:10:47;;;;;;;1.60;1.15;;;6.80;40.90;;;;;;5072159;28;20246;-50
2023/03/28 01:13:19;;;;;;;5.25;1.63;;;6.90;40.50;;;;;;5072023;28;20207;-49
2023/03/28 01:15:48;;;;;;;3.05;1.35;;;7.00;40.40;;;;;;5072053;28;20161;-50
2023/03/28 01:18:15;;;;;;;4.28;1.40;;;7.10;40.10;;;;;;5072364;28;20255;-50
2023/03/28 01:20:59;;;;;;;4.22;1.92;;;7.10;39.90;;;;;;5072355;28;20188;-50
2023/03/28 01:23:37;;;;;;;3.20;1.48;;;7.10;40.20;;;;;;5071699;28;20200;-50
2023/03/28 01:26:20;;;;;;;2.53;1.80;;;7.00;40.80;;;;;;5072079;28;20222;-49
2023/03/28 01:29:01;;;;;;;3.45;1.55;;;7.10;40.60;;;;;;5071980;28;20168;-50
2023/03/28 01:32:18;;;;;;;7.65;2.13;;;7.10;40.80;;;;;;5071795;28;20203;-50
2023/03/28 01:35:05;;;;;;;3.88;2.55;;;7.10;39.70;;;;;;5069091;28;20666;-50
2023/03/28 01:37:39;;;;;;;3.45;1.80;;;7.00;40.30;;;;;;5072004;28;20176;-50
2023/03/28 01:40:28;;;;;;;2.05;1.30;;;7.00;40.20;;;;;;5072211;28;20528;-50
2023/03/28 01:43:35;;;;;;;8.57;2.40;;;7.10;40.10;;;;;;5070326;28;20620;-50
2023/03/28 01:46:12;;;;;;;11.23;3.33;;;7.10;39.70;;;;;;5071838;28;20187;-50
2023/03/28 01:48:53;;;;;;;6.45;2.30;;;7.10;39.60;;;;;;5071804;28;20207;-50
2023/03/28 01:52:00;;;;;;;3.70;1.50;;;7.00;39.20;;;;;;5072640;28;20615;-50
2023/03/28 01:54:54;;;;;;;3.67;1.73;;;6.90;39.60;;;;;;5075799;28;20284;-50
2023/03/28 01:57:43;;;;;;;8.43;1.52;;;7.00;39.80;;;;;;5075800;28;20169;-50
2023/03/28 02:00:32;;;;;;;2.97;1.70;;;7.00;39.60;;;;;;5074331;28;20245;-50
2023/03/28 02:03:17;;;;;;;3.03;2.35;;;7.10;39.50;;;;;;5075483;28;20250;-50
2023/03/28 02:05:45;;;;;;;3.53;2.22;;;7.10;39.50;;;;;;5075883;28;20248;-50
2023/03/28 02:08:13;;;;;;;3.38;2.00;;;7.10;39.50;;;;;;5075556;28;20218;-50
2023/03/28 02:10:41;;;;;;;4.85;2.10;;;7.10;39.30;;;;;;5075670;28;20223;-50
2023/03/28 02:13:13;;;;;;;4.32;1.67;;;7.10;39.40;;;;;;5075136;28;20741;-50
2023/03/28 02:15:43;;;;;;;3.38;1.77;;;7.20;39.30;;;;;;5075293;28;20157;-50
2023/03/28 02:18:19;;;;;;;4.07;2.17;;;7.20;39.30;;;;;;5075350;28;20247;-50
2023/03/28 02:20:52;;;;;;;4.45;2.42;;;7.30;39.60;;;;;;5075252;28;20172;-50
2023/03/28 02:23:23;;;;;;;10.57;2.78;;;7.30;39.00;;;;;;5075276;28;20196;-50
2023/03/28 02:25:49;;;;;;;13.13;2.60;;;7.20;39.40;;;;;;5075266;28;20250;-50
2023/03/28 02:28:16;;;;;;;7.00;2.70;;;7.30;39.40;;;;;;5075313;28;20188;-50
2023/03/28 02:30:42;;;;;;;6.28;3.20;;;7.30;39.30;;;;;;5074833;28;20294;-50
2023/03/28 02:33:36;;;;;;;6.40;2.70;;;7.30;39.10;;;;;;5074759;28;20683;-50
2023/03/28 02:36:36;;;;;;;3.72;2.70;;;7.30;39.00;;;;;;5075324;28;20516;-50
2023/03/28 02:39:18;;;;;;;7.00;3.10;;;7.20;39.10;;;;;;5074868;28;20588;-50
2023/03/28 02:42:03;;;;;;;4.53;2.25;;;7.20;39.40;;;;;;5075061;28;20169;-50
2023/03/28 02:44:53;;;;;;;7.50;2.35;;;7.10;39.80;;;;;;5074936;28;20181;-50
2023/03/28 02:47:36;;;;;;;4.78;2.25;;;7.00;40.50;;;;;;5075056;28;20181;-50
2023/03/28 02:50:10;;;;;;;6.93;2.30;;;7.10;40.80;;;;;;5074804;28;20682;-50
2023/03/28 02:52:49;;;;;;;7.05;2.92;;;7.10;40.80;;;;;;5074706;28;20188;-50
2023/03/28 02:55:20;;;;;;;4.30;2.45;;;7.10;41.20;;;;;;5074921;28;20165;-50
2023/03/28 02:57:54;;;;;;;5.07;2.28;;;7.00;41.30;;;;;;5074669;28;20616;-50
2023/03/28 03:00:20;;;;;;;4.07;2.85;;;6.90;41.30;;;;;;5074869;28;20219;-50
2023/03/28 03:02:50;;;;;;;4.75;2.55;;;6.90;41.50;;;;;;5074036;28;20200;-51
2023/03/28 03:05:16;;;;;;;4.10;2.05;;;6.90;41.50;;;;;;5074449;28;20306;-51
2023/03/28 03:07:42;;;;;;;9.43;2.92;;;6.90;41.40;;;;;;5074393;28;20194;-50
2023/03/28 03:10:10;;;;;;;9.50;2.70;;;7.00;41.30;;;;;;5074386;28;20204;-50
2023/03/28 03:12:36;;;;;;;6.18;2.50;;;7.00;41.30;;;;;;5074343;28;20216;-50
2023/03/28 03:15:03;;;;;;;5.93;2.70;;;7.00;41.80;;;;;;5074320;28;20176;-51
2023/03/28 03:17:29;;;;;;;8.50;3.55;;;7.00;41.70;;;;;;5074314;28;20713;-50
2023/03/28 03:19:55;;;;;;;6.32;3.38;;;7.00;41.80;;;;;;5074503;28;20223;-50
2023/03/28 03:22:22;;;;;;;13.52;5.38;;;7.00;41.70;;;;;;5073779;28;20193;-50
2023/03/28 03:24:49;;;;;;;14.00;4.95;;;7.00;41.70;;;;;;5074146;28;20188;-50
2023/03/28 03:27:18;;;;;;;6.70;3.08;;;7.00;41.80;;;;;;5074194;28;20184;-50
2023/03/28 03:29:43;;;;;;;11.85;2.90;;;7.00;41.80;;;;;;5073798;28;20200;-50
2023/03/28 03:32:09;;;;;;;3.90;2.67;;;7.00;42.80;;;;;;5073699;28;20211;-50
2023/03/28 03:34:35;;;;;;;4.53;2.13;;;6.70;43.00;;;;;;5074009;28;20307;-50
2023/03/28 03:37:03;;;;;;;3.55;1.65;;;6.70;43.00;;;;;;5073715;28;20777;-50
2023/03/28 03:39:29;;;;;;;3.72;1.60;;;6.70;42.60;;;;;;5073841;28;20638;-50
2023/03/28 03:41:55;;;;;;;2.80;1.52;;;6.60;42.20;;;;;;5073624;28;20172;-50
2023/03/28 03:44:21;;;;;;;9.18;1.40;;;6.60;42.30;;;;;;5074035;28;20177;-50
2023/03/28 03:46:48;;;;;;;1.70;0.70;;;6.50;42.40;;;;;;5073846;28;20165;-49
2023/03/28 03:49:14;;;;;;;2.60;1.35;;;6.40;42.50;;;;;;5073634;28;20184;-50
2023/03/28 03:51:39;;;;;;;3.73;0.90;;;6.40;42.70;;;;;;5073588;28;20545;-50
2023/03/28 03:54:05;;;;;;;3.33;1.47;;;6.40;42.80;;;;;;5073361;28;20540;-50
2023/03/28 03:56:32;;;;;;;1.60;0.83;;;6.30;43.00;;;;;;5073480;28;20175;-50
2023/03/28 03:58:57;;;;;;;2.17;0.80;;;6.40;42.70;;;;;;5073660;28;20402;-50
2023/03/28 04:01:24;;;;;;;5.70;1.30;;;6.40;42.70;;;;;;5073382;28;20176;-50
2023/03/28 04:03:50;;;;;;;3.35;1.27;;;6.40;42.90;;;;;;5073052;28;20200;-50
2023/03/28 04:06:18;;;;;;;5.70;1.52;;;6.30;42.90;;;;;;5073229;28;20180;-50
2023/03/28 04:08:43;;;;;;;3.80;1.05;;;6.30;43.20;;;;;;5073416;28;20180;-50
2023/03/28 04:11:09;;;;;;;6.03;2.20;;;6.20;43.20;;;;;;5073095;28;20201;-50
2023/03/28 04:13:35;;;;;;;9.20;1.23;;;6.20;43.60;;;;;;5072403;28;20223;-50
2023/03/28 04:16:01;;;;;;;5.47;1.25;;;6.20;43.50;;;;;;5072557;28;20407;-50
2023/03/28 04:18:28;;;;;;;3.85;1.42;;;6.20;43.50;;;;;;5072883;28;20199;-50
2023/03/28 04:20:57;;;;;;;5.03;1.50;;;6.30;43.50;;;;;;5072997;28;20241;-50
2023/03/28 04:23:24;;;;;;;2.42;1.48;;;6.30;43.30;;;;;;5072718;28;20292;-50
2023/03/28 04:25:57;;;;;;;1.90;1.20;;;6.30;43.10;;;;;;5072990;28;20180;-50
2023/03/28 04:28:24;;;;;;;3.65;1.60;;;6.40;43.00;;;;;;5073137;28;20203;-50
2023/03/28 04:30:58;;;;;;;4.50;1.70;;;6.30;42.90;;;;;;5072591;28;20204;-50
2023/03/28 04:33:25;;;;;;;2.80;1.85;;;6.40;42.90;;;;;;5072462;28;20675;-51
2023/03/28 04:35:56;;;;;;;2.97;1.10;;;6.30;43.00;;;;;;5072841;28;20629;-49
2023/03/28 04:38:30;;;;;;;2.60;1.20;;;6.40;43.00;;;;;;5072597;28;20180;-50
2023/03/28 04:40:57;;;;;;;2.40;1.13;;;6.40;42.80;;;;;;5072879;28;20172;-52
2023/03/28 04:43:27;;;;;;;5.13;1.52;;;6.50;42.70;;;;;;5072279;28;20205;-49
2023/03/28 04:45:54;;;;;;;3.72;1.65;;;6.50;42.60;;;;;;5072533;28;20659;-52
2023/03/28 04:48:21;;;;;;;7.72;2.00;;;6.50;42.50;;;;;;5072726;28;20188;-52
2023/03/28 04:50:47;;;;;;;2.17;1.05;;;6.50;42.60;;;;;;5072359;28;20683;-51
2023/03/28 04:53:13;;;;;;;5.00;1.90;;;6.50;42.80;;;;;;5072413;28;20196;-49
2023/03/28 04:55:39;;;;;;;7.10;1.52;;;6.50;42.80;;;;;;5072438;28;20169;-52
2023/03/28 04:58:05;;;;;;;6.05;1.40;;;6.50;42.80;;;;;;5072255;28;20407;-50
2023/03/28 05:00:31;;;;;;;4.97;1.52;;;6.40;42.80;;;;;;5072567;28;20226;-50
2023/03/28 05:03:03;;;;;;;7.35;2.00;;;6.40;43.10;;;;;;5072221;28;20617;-50
2023/03/28 05:05:30;;;;;;;3.15;1.40;;;6.40;43.20;;;;;;5072564;28;20183;-50
2023/03/28 05:07:57;;;;;;;1.52;1.10;;;6.40;43.00;;;;;;5072258;28;20200;-53
2023/03/28 05:10:23;;;;;;;2.05;1.20;;;6.40;43.10;;;;;;5072062;28;20240;-51
2023/03/28 05:12:49;;;;;;;3.33;1.48;;;6.80;43.20;;;;;;5071783;28;20201;-50
2023/03/28 05:15:15;;;;;;;3.35;1.92;;;6.40;43.00;;;;;;5072097;28;20707;-50
2023/03/28 05:17:40;;;;;;;2.70;1.37;;;6.40;43.10;;;;;;5072224;28;20255;-50
2023/03/28 05:20:09;;;;;;;5.67;1.93;;;6.40;43.20;;;;;;5072003;28;20297;-51
2023/03/28 05:22:35;;;;;;;3.15;1.83;;;6.30;43.10;;;;;;5071829;28;20200;-50
2023/03/28 05:25:02;;;;;;;6.25;2.33;;;6.40;43.00;;;;;;5071809;28;20552;-51
2023/03/28 05:27:28;;;;;;;5.18;1.55;;;6.40;43.20;;;;;;5071875;28;20222;-50
2023/03/28 05:29:55;;;;;;;4.70;2.83;;;6.40;43.00;;;;;;5071973;28;20216;-50
2023/03/28 05:32:20;;;;;;;1.75;0.95;;;6.40;42.80;;;;;;5071616;28;20208;-50
2023/03/28 05:34:46;;;;;;;4.90;1.80;;;6.40;42.80;;;;;;5071920;28;20172;-53
2023/03/28 05:37:12;;;;;;;3.70;1.80;;;6.40;42.60;;;;;;5072003;28;20655;-51
2023/03/28 05:39:38;;;;;;;5.55;2.00;;;6.40;42.40;;;;;;5071828;28;20168;-50
2023/03/28 05:42:04;;;;;;;3.10;1.88;;;6.40;42.30;;;;;;5071474;28;20703;-51
2023/03/28 05:44:30;;;;;;;3.47;2.28;;;6.40;42.20;;;;;;5071835;28;20172;-50
2023/03/28 05:46:56;;;;;;;3.60;1.97;;;6.50;42.20;;;;;;5071828;28;20179;-51
2023/03/28 05:49:22;;;;;;;3.40;2.00;;;6.50;42.10;;;;;;5072110;28;20179;-50
2023/03/28 05:51:47;;;;;;;5.17;1.70;;;6.40;41.90;;;;;;5071459;28;20202;-50
2023/03/28 05:54:13;;;;;;;4.63;2.50;;;6.40;42.00;;;;;;5071635;28;20637;-51
2023/03/28 05:56:39;;;;;;;3.00;1.70;;;6.50;42.00;;;;;;5071636;28;20421;-50
2023/03/28 05:59:04;;;;;;;7.40;2.00;;;6.50;41.80;;;;;;5071639;28;20168;-50
2023/03/28 06:01:30;;;;;;;3.90;1.50;;;6.50;41.50;;;;;;5071562;28;20652;-51
2023/03/28 06:03:57;;;;;;;2.63;1.53;;;6.50;41.40;;;;;;5071397;28;20193;-51
2023/03/28 06:06:23;;;;;;;2.30;1.83;;;6.50;41.30;;;;;;5071746;28;20180;-50
2023/03/28 06:08:48;;;;;;;3.90;2.30;;;6.50;41.30;;;;;;5071660;28;20548;-50
2023/03/28 06:11:14;;;;;;;2.60;1.90;;;6.50;41.00;;;;;;5071602;28;20532;-50
2023/03/28 06:13:40;;;;;;;3.00;1.87;;;6.60;41.00;;;;;;5071240;28;20237;-50
2023/03/28 06:16:06;;;;;;;3.30;1.80;;;6.60;40.50;;;;;;5071833;28;20539;-51
2023/03/28 06:18:32;;;;;;;3.87;2.20;;;6.70;40.00;;;;;;5071476;28;20711;-50
2023/03/28 06:20:57;;;;;;;3.73;2.20;;;6.70;40.30;;;;;;5071508;28;20415;-50
2023/03/28 06:23:24;;;;;;;5.17;2.60;;;6.70;40.20;;;;;;5071189;28;20980;-51
2023/03/28 06:25:50;;;;;;;4.22;2.00;;;6.70;39.80;;;;;;5071349;28;20407;-50
2023/03/28 06:28:16;;;;;;;7.60;2.30;;;6.70;39.60;;;;;;5071641;28;20181;-51
2023/03/28 06:30:46;;;;;;;5.77;2.10;;;6.70;39.70;;;;;;5071310;28;20611;-51
2023/03/28 06:33:11;;;;;;;3.83;1.75;;;6.70;39.30;;;;;;5071115;28;20423;-50
2023/03/28 06:35:37;;;;;;;3.17;2.20;;;6.60;39.30;;;;;;5071403;28;20184;-51
2023/03/28 06:38:03;;;;;;;11.52;2.75;;;6.70;39.40;;;;;;5072841;28;20172;-50
2023/03/28 06:40:29;;;;;;;3.73;1.73;;;6.70;39.30;;;;;;5074880;28;20230;-50
2023/03/28 06:42:55;;;;;;;5.68;2.08;;;6.70;39.00;;;;;;5074863;28;20200;-50
2023/03/28 06:45:21;;;;;;;4.27;3.17;;;6.80;39.10;;;;;;5074878;28;20509;-50
2023/03/28 06:47:49;;;;;;;4.53;1.87;;;6.90;39.10;;;;;;5074808;28;20176;-50
2023/03/28 06:50:15;;;;;;;2.30;2.03;;;6.90;38.60;;;;;;5074684;28;20328;-50
2023/03/28 06:52:40;;;;;;;2.70;1.53;;;6.90;38.10;;;;;;5074325;28;20724;-51
2023/03/28 06:55:07;;;;;;;5.67;2.07;;;6.80;38.10;;;;;;5074836;28;20465;-50
2023/03/28 06:57:33;;;;;;;4.15;2.30;;;6.80;38.30;;;;;;5074892;28;20179;-51
2023/03/28 06:59:58;;;;;;;4.32;1.75;;;6.90;38.70;;;;;;5074778;28;20314;-51
2023/03/28 07:02:24;;;;;;;6.60;2.37;;;6.90;38.80;;;;;;5074275;28;20627;-48
2023/03/28 07:04:50;;;;;;;2.67;2.10;;;6.90;38.00;;;;;;5074481;28;20179;-49
2023/03/28 07:07:15;;;;;;;4.93;2.03;;;7.00;38.40;;;;;;5074421;28;20177;-51
2023/03/28 07:09:41;;;;;;;2.10;1.90;;;7.00;37.90;;;;;;5074294;28;20173;-50
2023/03/28 07:12:07;;;;;;;3.13;2.30;;;7.20;38.30;;;;;;5074117;28;20484;-50
2023/03/28 07:14:33;;;;;;;3.93;1.80;;;7.30;38.00;;;;;;5074512;28;20727;-50
2023/03/28 07:16:59;;;;;;;5.22;3.28;;;7.50;38.10;;;;;;5074228;28;20255;-53
2023/03/28 07:19:25;;;;;;;4.13;1.47;;;7.70;37.80;;;;;;5074229;28;20252;-50
2023/03/28 07:21:51;;;;;;;2.37;1.80;;;7.90;35.60;;;;;;5073821;28;20172;-51
2023/03/28 07:24:17;;;;;;;3.03;1.45;;;7.80;36.30;;;;;;5074364;28;20419;-51
2023/03/28 07:26:44;;;;;;;3.45;2.00;;;7.80;35.40;;;;;;5074078;28;20219;-49
2023/03/28 07:29:10;;;;;;;10.07;2.53;;;7.80;35.30;;;;;;5073936;28;20169;-52
2023/03/28 07:31:35;;;;;;;3.70;1.70;;;7.90;35.90;;;;;;5073984;28;20211;-49
2023/03/28 07:34:01;;;;;;;7.50;2.77;;;8.00;36.00;;;;;;5073723;28;20414;-48
2023/03/28 07:36:28;;;;;;;3.70;1.70;;;8.00;35.60;;;;;;5074130;28;20164;-52
2023/03/28 07:38:54;;;;;;;6.10;2.40;;;7.90;34.30;;;;;;5073811;28;20402;-49
2023/03/28 07:41:21;;;;;;;4.28;2.13;;;7.90;35.00;;;;;;5073761;28;20181;-49
2023/03/28 07:43:47;;;;;;;7.03;2.72;;;8.00;35.90;;;;;;5073500;28;20188;-50
2023/03/28 07:46:14;;;;;;;3.47;1.67;;;8.20;35.40;;;;;;5073654;28;20277;-50
2023/03/28 07:48:40;;;;;;;6.40;1.70;;;8.40;35.20;;;;;;5073745;28;20414;-49
2023/03/28 07:51:08;;;;;;;2.50;1.48;;;8.70;35.50;;;;;;5073699;28;20291;-50
2023/03/28 07:53:36;;;;;;;3.30;2.03;;;8.80;33.40;;;;;;5073256;28;20586;-49
2023/03/28 07:56:03;;;;;;;2.95;1.40;;;8.80;33.30;;;;;;5073500;28;20175;-50
2023/03/28 07:58:29;;;;;;;3.45;1.52;;;8.90;33.60;;;;;;5073439;28;20684;-51
2023/03/28 08:00:55;;;;;;;2.63;1.50;;;9.00;34.10;;;;;;5073375;28;20179;-51
2023/03/28 08:03:24;;;;;;;3.37;1.50;;;9.30;34.50;;;;;;5073031;28;20196;-51
2023/03/28 08:05:53;;;;;;;5.03;2.33;;;9.50;34.10;;;;;;5073150;28;20430;-50
2023/03/28 08:08:19;;;;;;;5.80;1.98;;;9.70;33.00;;;;;;5073399;28;20173;-52
2023/03/28 08:10:49;;;;;;;2.75;1.48;;;9.60;32.20;;;;;;5073444;28;20207;-51
2023/03/28 08:13:16;;;;;;;2.55;1.38;;;9.60;31.50;;;;;;5072880;28;20284;-50
2023/03/28 08:15:42;;;;;;;6.07;1.67;;;9.60;31.00;;;;;;5073202;28;20197;-50
2023/03/28 08:18:08;;;;;;;3.40;1.67;;;9.50;30.80;;;;;;5072976;28;20631;-51
2023/03/28 08:20:34;;;;;;;3.67;1.57;;;9.60;31.70;;;;;;5073291;28;20176;-51
2023/03/28 08:23:01;;;;;;;2.83;1.90;;;9.80;32.10;;;;;;5072582;28;20429;-51
2023/03/28 08:25:27;;;;;;;4.47;2.13;;;9.90;31.40;;;;;;5072775;28;20548;-51
2023/03/28 08:27:53;;;;;;;3.30;2.15;;;9.90;31.80;;;;;;5072941;28;20179;-51
2023/03/28 08:30:19;;;;;;;5.67;2.03;;;9.90;30.10;;;;;;5072760;28;20706;-51
2023/03/28 08:32:45;;;;;;;3.97;2.07;;;9.70;30.50;;;;;;5072400;28;20996;-50
2023/03/28 08:35:11;;;;;;;2.58;1.92;;;9.50;30.00;;;;;;5072658;28;20406;-51
2023/03/28 08:37:37;;;;;;;4.67;1.20;;;9.50;30.50;;;;;;5072764;28;20660;-50
2023/03/28 08:40:07;;;;;;;6.00;1.90;;;9.50;30.70;;;;;;5072642;28;20176;-51
2023/03/28 08:42:36;;;;;;;2.85;1.38;;;9.70;31.30;;;;;;5072598;28;20268;-51
2023/03/28 08:45:13;;;;;;;3.38;1.60;;;9.90;29.80;;;;;;5072497;28;20179;-51
2023/03/28 08:48:35;;;;;;;5.22;1.60;;;10.00;29.60;;;;;;5072849;28;20187;-49
2023/03/28 08:51:21;;;;;;;1.30;0.90;;;10.20;29.50;;;;;;5010372;28;20206;-53
2023/03/28 08:54:07;;;;;;;2.38;1.40;;;10.40;28.30;;;;;;5010255;28;20194;-51
2023/03/28 08:56:39;;;;;;;2.53;1.45;;;10.60;29.40;;;;;;5010517;28;20178;-53
2023/03/28 08:59:09;;;;;;;2.67;1.77;;;10.90;29.10;;;;;;5010443;28;20186;-49
2023/03/28 09:01:35;;;;;;;3.65;2.03;;;11.10;28.20;;;;;;5010065;28;20590;-53
2023/03/28 09:04:02;;;;;;;2.80;1.90;;;11.00;25.00;;;;;;5009964;28;20225;-50
2023/03/28 09:06:37;;;;;;;2.65;1.60;;;10.50;26.60;;;;;;5010228;28;20186;-51
2023/03/28 09:09:20;;;;;;;3.15;1.55;;;10.50;28.70;;;;;;5010324;28;20666;-51
2023/03/28 09:12:08;;;;;;;2.08;1.20;;;10.60;28.10;;;;;;5009928;28;20763;-51
2023/03/28 09:14:48;;;;;;;4.63;2.85;;;10.70;27.60;;;;;;5009969;28;20182;-52
2023/03/28 09:17:32;;;;;;;2.03;1.35;;;10.80;26.20;;;;;;5010238;28;20167;-50
2023/03/28 09:20:28;;;;;;;2.17;1.17;;;11.00;25.60;;;;;;5010159;28;20168;-50
2023/03/28 09:23:09;;;;;;;2.78;2.03;;;10.80;26.30;;;;;;5009634;28;20287;-50
2023/03/28 09:25:53;;;;;;;2.75;1.33;;;10.70;25.90;;;;;;5055527;28;20283;-50
2023/03/28 09:28:40;;;;;;;2.40;1.05;;;10.70;25.90;;;;;;5072080;28;20723;-50
2023/03/28 09:31:11;;;;;;;2.05;1.40;;;10.90;26.40;;;;;;5071702;28;20223;-50
2023/03/28 09:33:42;;;;;;;5.78;1.55;;;11.10;25.90;;;;;;5071752;28;20691;-50
2023/03/28 09:36:13;;;;;;;2.38;1.00;;;11.10;25.30;;;;;;5071942;28;20244;-51
2023/03/28 09:39:28;;;;;;;1.75;1.05;;;11.10;24.40;;;;;;5071890;28;20169;-50
2023/03/28 09:42:34;;;;;;;3.28;1.55;;;11.20;24.00;;;;;;5067758;28;20180;-49
2023/03/28 09:45:06;;;;;;;2.85;1.70;;;11.30;23.70;;;;;;5070270;28;20188;-51
2023/03/28 09:47:32;;;;;;;2.13;1.52;;;11.50;24.80;;;;;;5071747;28;20562;-50
2023/03/28 09:49:58;;;;;;;1.77;1.37;;;11.70;24.30;;;;;;5071861;28;20314;-53
2023/03/28 09:52:24;;;;;;;3.07;1.00;;;11.70;24.30;;;;;;5071734;28;20430;-53
2023/03/28 09:54:50;;;;;;;2.60;0.80;;;11.40;22.40;;;;;;5072068;28;20485;-49
2023/03/28 09:57:16;;;;;;;3.88;0.93;;;11.40;21.70;;;;;;5071881;28;20574;-53
2023/03/28 09:59:41;;;;;;;2.33;1.33;;;11.50;23.80;;;;;;5071790;28;20295;-50
2023/03/28 10:02:29;;;;;;;2.27;1.30;;;11.70;23.60;;;;;;5071454;28;20196;-50
2023/03/28 10:04:55;;;;;;;1.90;0.95;;;11.80;22.60;;;;;;5071827;28;20173;-51
2023/03/28 10:07:41;;;;;;;1.70;1.03;;;11.70;23.00;;;;;;5071837;28;20659;-51
2023/03/28 10:10:17;;;;;;;1.88;1.38;;;11.80;23.40;;;;;;5071550;28;20495;-52
2023/03/28 10:12:47;;;;;;;1.98;0.90;;;11.90;22.10;;;;;;5072434;28;20642;-50
2023/03/28 10:15:37;;;;;;;2.75;1.02;;;11.90;21.40;;;;;;5075661;28;20670;-52
2023/03/28 10:18:04;;;;;;;2.00;1.00;;;11.70;20.00;;;;;;5075348;28;20184;-52
2023/03/28 10:20:35;;;;;;;1.30;0.90;;;11.50;20.30;;;;;;5075403;28;20682;-49
2023/03/28 10:23:03;;;;;;;1.33;1.00;;;11.50;20.00;;;;;;5075217;28;20193;-53
2023/03/28 10:25:37;;;;;;;2.22;1.42;;;11.60;20.70;;;;;;5075507;28;20317;-51
2023/03/28 10:28:05;;;;;;;3.03;0.93;;;11.70;19.70;;;;;;5075403;28;20181;-51
2023/03/28 10:30:35;;;;;;;1.45;1.27;;;11.70;20.00;;;;;;5074976;28;20193;-51
2023/03/28 10:33:30;;;;;;;2.08;1.00;;;11.50;19.70;;;;;;5074998;28;20204;-50
2023/03/28 10:36:06;;;;;;;1.52;0.95;;;11.40;20.00;;;;;;5075310;28;20206;-49
2023/03/28 10:38:43;;;;;;;1.55;1.23;;;11.40;20.70;;;;;;5075169;28;20172;-52
2023/03/28 10:41:11;;;;;;;1.48;0.57;;;11.50;19.90;;;;;;5074960;28;20172;-50
2023/03/28 10:43:39;;;;;;;1.10;0.57;;;11.50;20.00;;;;;;5074666;28;20262;-54
2023/03/28 10:46:13;;;;;;;1.88;0.90;;;11.60;19.00;;;;;;5074789;28;20243;-52
2023/03/28 10:48:45;;;;;;;1.75;0.73;;;11.90;21.90;;;;;;5075151;28;20195;-51
2023/03/28 10:51:20;;;;;;;1.50;0.60;;;12.30;19.60;;;;;;5074895;28;20201;-53
2023/03/28 10:54:15;;;;;;;1.73;1.00;;;12.50;18.40;;;;;;5074373;28;20277;-50
2023/03/28 10:56:54;;;;;;;4.03;1.00;;;12.70;20.30;;;;;;5074602;28;20251;-51
2023/03/28 10:59:54;;;;;;;9.85;1.35;;;12.80;19.50;;;;;;5074684;28;20185;-51
2023/03/28 11:02:35;;;;;;;1.17;0.55;;;13.00;18.50;;;;;;5074220;28;20181;-50
2023/03/28 11:05:20;;;;;;;2.95;1.27;;;13.10;17.70;;;;;;5074525;28;20164;-50
2023/03/28 11:07:49;;;;;;;1.98;0.90;;;13.00;18.60;;;;;;5074715;28;20203;-52
2023/03/28 11:10:35;;;;;;;1.40;1.00;;;13.00;18.50;;;;;;5074343;28;20196;-51
2023/03/28 11:13:21;;;;;;;4.30;1.27;;;12.90;18.60;;;;;;5074306;28;20598;-52
2023/03/28 11:16:26;;;;;;;2.67;0.80;;;13.00;19.50;;;;;;5074557;28;20229;-52
2023/03/28 11:19:18;;;;;;;2.00;0.70;;;13.10;18.60;;;;;;5074277;28;20194;-52
2023/03/28 11:21:51;;;;;;;2.40;0.98;;;13.40;18.60;;;;;;5072975;28;20237;-53
2023/03/28 11:25:00;;;;;;;1.92;1.40;;;13.60;20.00;;;;;;5073782;28;20193;-50
2023/03/28 11:27:50;;;;;;;1.88;0.90;;;14.00;18.30;;;;;;5071797;28;20355;-51
2023/03/28 11:30:31;;;;;;;2.22;1.35;;;13.90;18.80;;;;;;5071519;28;20575;-53
2023/03/28 11:33:03;;;;;;;1.33;0.65;;;14.00;17.80;;;;;;5071258;28;20288;-53
2023/03/28 11:35:35;;;;;;;2.78;0.90;;;14.00;17.00;;;;;;5071650;28;20305;-50
2023/03/28 11:38:21;;;;;;;1.35;0.80;;;14.10;17.30;;;;;;5071523;28;20180;-53
2023/03/28 11:40:58;;;;;;;1.30;0.98;;;14.10;17.90;;;;;;5071519;28;20188;-53
2023/03/28 11:43:57;;;;;;;1.98;1.02;;;14.10;18.10;;;;;;5071244;28;20200;-50
2023/03/28 11:46:28;;;;;;;1.75;1.15;;;14.30;18.20;;;;;;5071282;28;20184;-51
2023/03/28 11:49:06;;;;;;;1.83;1.33;;;14.40;17.40;;;;;;5071292;28;20263;-52
2023/03/28 11:51:40;;;;;;;2.25;0.88;;;14.50;17.30;;;;;;5071157;28;20766;-53
2023/03/28 11:54:17;;;;;;;2.38;1.00;;;14.60;16.80;;;;;;5071130;28;20177;-53
2023/03/28 11:56:49;;;;;;;1.58;1.15;;;14.70;17.40;;;;;;5071355;28;20161;-53
2023/03/28 11:59:24;;;;;;;2.45;1.77;;;14.70;17.60;;;;;;5073343;28;20890;-51
2023/03/28 12:01:58;;;;;;;2.55;1.17;;;14.90;18.40;;;;;;5073057;28;20152;-52
2023/03/28 12:04:29;;;;;;;1.77;1.60;;;15.20;18.10;;;;;;5073391;28;20651;-52
2023/03/28 12:07:38;;;;;;;1.95;1.52;;;15.10;17.20;;;;;;5073444;28;20555;-53
2023/03/28 12:10:20;;;;;;;3.08;1.60;;;15.30;17.40;;;;;;5070765;28;20184;-54
2023/03/28 12:12:54;;;;;;;1.70;1.50;;;15.30;17.10;;;;;;5070614;28;20188;-50
2023/03/28 12:15:26;;;;;;;1.85;1.30;;;15.30;16.90;;;;;;5070736;28;20199;-52
2023/03/28 12:18:00;;;;;;;1.30;0.80;;;15.40;17.50;;;;;;5070700;28;20211;-53
2023/03/28 12:20:45;;;;;;;5.25;1.23;;;15.60;17.40;;;;;;5070633;28;20233;-51
2023/03/28 12:23:26;;;;;;;6.90;1.63;;;15.60;17.10;;;;;;5070356;28;20202;-52
2023/03/28 12:25:57;;;;;;;2.20;1.30;;;15.60;15.60;;;;;;5070701;28;20222;-52
2023/03/28 12:28:37;;;;;;;1.55;1.23;;;15.40;16.70;;;;;;5070502;28;20207;-50
2023/03/28 12:31:05;;;;;;;3.08;1.50;;;15.50;17.80;;;;;;5070281;28;20226;-52
2023/03/28 12:33:45;;;;;;;1.90;1.30;;;15.70;18.10;;;;;;5070106;28;20576;-52
2023/03/28 12:36:24;;;;;;;3.60;1.65;;;15.80;17.90;;;;;;5069776;28;20165;-50
2023/03/28 12:39:04;;;;;;;5.00;2.25;;;15.90;18.00;;;;;;5070472;28;20586;-53
2023/03/28 12:41:36;;;;;;;4.28;1.65;;;15.90;18.00;;;;;;5072067;28;20179;-53
2023/03/28 12:44:12;;;;;;;3.88;1.42;;;15.80;16.30;;;;;;5072319;28;20246;-52
2023/03/28 12:46:50;;;;;;;2.85;1.17;;;15.90;18.00;;;;;;5072719;28;20172;-52
2023/03/28 12:49:40;;;;;;;2.53;1.50;;;16.10;17.90;;;;;;5072519;28;20184;-52
2023/03/28 12:52:36;;;;;;;3.03;2.05;;;16.10;18.00;;;;;;5072275;28;20227;-53
2023/03/28 12:55:24;;;;;;;2.08;1.40;;;16.00;17.60;;;;;;5072055;28;20185;-52
2023/03/28 12:57:52;;;;;;;3.25;1.55;;;15.80;17.70;;;;;;5072493;28;20165;-52
2023/03/28 13:00:26;;;;;;;1.73;1.30;;;15.60;17.40;;;;;;5072636;28;20183;-51
2023/03/28 13:03:04;;;;;;;3.00;1.67;;;15.50;18.40;;;;;;5071835;28;20218;-50
2023/03/28 13:05:57;;;;;;;4.32;1.90;;;15.50;17.80;;;;;;5072241;28;20172;-51
2023/03/28 13:08:48;;;;;;;3.10;1.40;;;15.30;18.10;;;;;;5072570;28;20169;-51
2023/03/28 13:11:52;;;;;;;3.25;1.95;;;15.20;19.00;;;;;;5072087;28;20200;-53
2023/03/28 13:14:37;;;;;;;3.05;1.83;;;15.00;18.40;;;;;;5072413;28;20169;-51
2023/03/28 13:17:26;;;;;;;2.30;1.80;;;14.90;18.60;;;;;;5072289;28;20188;-52
2023/03/28 13:20:09;;;;;;;3.17;1.40;;;14.80;18.20;;;;;;5072375;28;20206;-53
2023/03/28 13:22:52;;;;;;;2.67;1.20;;;14.40;16.80;;;;;;5072080;28;20275;-53